Nada — HP7329 — position and weather

sailwx.info

Track history (hours):
 
Tides and Currents Weather Stations Pressure Air Temp Water Temp Dewpoint Dewpoint Depression Visibility Wind Speed Wind Dir Waves Ship Positions

Nada

Last reported at 2018-Jan-05 05:53 UTC. Time now 2018-Jan-22 16:25 UTC.
Position N 35°58' W 005°31'.
Warning: this ship's position is 17 days out of date.

Length 201 m; draft 9.1 m.

Type: Cargo ship. MMSI: 372415000.

Date/timePositionNaut miles runAvg speedWind from/ knotsBaromVisibWave heightAir tempDewpointWater temp
2018-Jan-05 05:53N 35°58' W 005°31'513.8
2018-Jan-05 05:30N 35°60' W 005°25'5 9.2
2018-Jan-05 05:00N 35°57' W 005°20'2 4.6
2018-Jan-05 04:28N 35°55' W 005°20'0 0.2
2018-Jan-05 03:58N 35°54' W 005°20'0 0.0
2018-Jan-05 03:28N 35°55' W 005°20'0 0.0
2018-Jan-05 02:58N 35°55' W 005°20'0 0.1
2018-Jan-05 02:28N 35°54' W 005°20'0 0.0
2018-Jan-05 02:00N 35°54' W 005°20'0 0.1
2018-Jan-05 01:30N 35°54' W 005°20'0 0.0
2018-Jan-05 01:00N 35°54' W 005°20'0 0.0
2018-Jan-05 00:30N 35°54' W 005°20'0 0.0
2018-Jan-05 00:00N 35°54' W 005°20'0 0.0
2018-Jan-04 23:30N 35°54' W 005°20'0 0.0
2018-Jan-04 23:00N 35°54' W 005°20'0 0.1
2018-Jan-04 22:27N 35°54' W 005°20'0 0.2
2018-Jan-04 22:00N 35°55' W 005°20'0 0.2
2018-Jan-04 21:30N 35°55' W 005°20'0 0.1
2018-Jan-04 21:00N 35°55' W 005°20'0 0.1
2018-Jan-04 20:30N 35°55' W 005°20'0 0.3
2018-Jan-04 20:00N 35°55' W 005°20'0 0.1
2018-Jan-04 19:30N 35°54' W 005°20'0 0.1
2018-Jan-04 19:00N 35°54' W 005°20'0 0.1
2018-Jan-04 18:29N 35°54' W 005°20'0 0.1
2018-Jan-04 17:59N 35°54' W 005°20'0 0.1
2018-Jan-04 17:29N 35°54' W 005°20'0 0.0
2018-Jan-04 16:59N 35°54' W 005°20'0 0.0
2018-Jan-04 16:29N 35°54' W 005°20'0 0.0
2018-Jan-04 15:59N 35°54' W 005°20'0 0.1
2018-Jan-04 15:29N 35°54' W 005°20'0 0.0
2018-Jan-04 14:59N 35°54' W 005°20'0 0.0
2018-Jan-04 14:29N 35°54' W 005°20'0 0.0
2018-Jan-04 13:59N 35°54' W 005°20'0 0.1
2018-Jan-04 13:29N 35°54' W 005°20'0 0.1
2018-Jan-04 12:59N 35°54' W 005°20'0 0.8
2018-Jan-04 12:30N 35°55' W 005°19'  
2017-Dec-30 00:14N 37°30' W 000°48'1316.9
2017-Dec-29 23:28N 37°30' W 000°32'69815.0
2017-Dec-28 00:58N 36°18' E 013°57'714.4
2017-Dec-28 00:27N 36°15' E 014°05'613.9
2017-Dec-28 00:00N 36°12' E 014°12'713.8
2017-Dec-27 23:30N 36°09' E 014°19'714.9
2017-Dec-27 23:00N 36°04' E 014°26'713.3
2017-Dec-27 22:30N 35°60' E 014°33'3 5.3
2017-Dec-27 22:00N 35°58' E 014°35'1 1.6
2017-Dec-27 21:30N 35°58' E 014°35'  
Track history (hours):
 
Tides and Currents Weather Stations Pressure Air Temp Water Temp Dewpoint Dewpoint Depression Visibility Wind Speed Wind Dir Waves Ship Positions

Nada

Last reported at 2018-Jan-05 05:53 UTC. Time now 2018-Jan-22 16:25 UTC.
Position N 35°58' W 005°31'.
Warning: this ship's position is 17 days out of date.

Length 201 m; draft 9.1 m.

Type: Cargo ship. MMSI: 372415000.

Date/timePositionNaut miles runAvg speedWind from/ knotsBaromVisibWave heightAir tempDewpointWater temp
2018-Jan-05 05:53N 35°58' W 005°31'513.8
2018-Jan-05 05:30N 35°60' W 005°25'5 9.2
2018-Jan-05 05:00N 35°57' W 005°20'2 4.6
2018-Jan-05 04:28N 35°55' W 005°20'0 0.2
2018-Jan-05 03:58N 35°54' W 005°20'0 0.0
2018-Jan-05 03:28N 35°55' W 005°20'0 0.0
2018-Jan-05 02:58N 35°55' W 005°20'0 0.1
2018-Jan-05 02:28N 35°54' W 005°20'0 0.0
2018-Jan-05 02:00N 35°54' W 005°20'0 0.1
2018-Jan-05 01:30N 35°54' W 005°20'0 0.0
2018-Jan-05 01:00N 35°54' W 005°20'0 0.0
2018-Jan-05 00:30N 35°54' W 005°20'0 0.0
2018-Jan-05 00:00N 35°54' W 005°20'0 0.0
2018-Jan-04 23:30N 35°54' W 005°20'0 0.0
2018-Jan-04 23:00N 35°54' W 005°20'0 0.1
2018-Jan-04 22:27N 35°54' W 005°20'0 0.2
2018-Jan-04 22:00N 35°55' W 005°20'0 0.2
2018-Jan-04 21:30N 35°55' W 005°20'0 0.1
2018-Jan-04 21:00N 35°55' W 005°20'0 0.1
2018-Jan-04 20:30N 35°55' W 005°20'0 0.3
2018-Jan-04 20:00N 35°55' W 005°20'0 0.1
2018-Jan-04 19:30N 35°54' W 005°20'0 0.1
2018-Jan-04 19:00N 35°54' W 005°20'0 0.1
2018-Jan-04 18:29N 35°54' W 005°20'0 0.1
2018-Jan-04 17:59N 35°54' W 005°20'0 0.1
2018-Jan-04 17:29N 35°54' W 005°20'0 0.0
2018-Jan-04 16:59N 35°54' W 005°20'0 0.0
2018-Jan-04 16:29N 35°54' W 005°20'0 0.0
2018-Jan-04 15:59N 35°54' W 005°20'0 0.1
2018-Jan-04 15:29N 35°54' W 005°20'0 0.0
2018-Jan-04 14:59N 35°54' W 005°20'0 0.0
2018-Jan-04 14:29N 35°54' W 005°20'0 0.0
2018-Jan-04 13:59N 35°54' W 005°20'0 0.1
2018-Jan-04 13:29N 35°54' W 005°20'0 0.1
2018-Jan-04 12:59N 35°54' W 005°20'0 0.8
2018-Jan-04 12:30N 35°55' W 005°19'  
2017-Dec-30 00:14N 37°30' W 000°48'1316.9
2017-Dec-29 23:28N 37°30' W 000°32'69815.0
2017-Dec-28 00:58N 36°18' E 013°57'714.4
2017-Dec-28 00:27N 36°15' E 014°05'613.9
2017-Dec-28 00:00N 36°12' E 014°12'713.8
2017-Dec-27 23:30N 36°09' E 014°19'714.9
2017-Dec-27 23:00N 36°04' E 014°26'713.3
2017-Dec-27 22:30N 35°60' E 014°33'3 5.3
2017-Dec-27 22:00N 35°58' E 014°35'1 1.6
2017-Dec-27 21:30N 35°58' E 014°35'  

Dump ship's entire track history